createdAt,value
2018-09-14T00:01:32.644Z,2.50
2018-09-14T00:04:00.736Z,1.93
2018-09-14T00:06:28.927Z,1.80
2018-09-14T00:08:57.021Z,2.00
2018-09-14T00:11:25.157Z,2.20
2018-09-14T00:13:53.344Z,2.20
2018-09-14T00:16:21.467Z,2.30
2018-09-14T00:18:49.576Z,2.33
2018-09-14T00:21:17.679Z,2.03
2018-09-14T00:23:45.809Z,2.40
2018-09-14T00:26:13.907Z,2.10
2018-09-14T00:28:42.048Z,1.87
2018-09-14T00:31:10.151Z,2.10
2018-09-14T00:33:38.300Z,2.23
2018-09-14T00:36:06.451Z,2.00
2018-09-14T00:38:36.594Z,2.00
2018-09-14T00:41:04.963Z,1.93
2018-09-14T00:43:33.122Z,2.00
2018-09-14T00:46:01.243Z,2.10
2018-09-14T00:48:29.395Z,2.00
2018-09-14T00:50:57.544Z,1.90
2018-09-14T00:53:25.671Z,2.20
2018-09-14T00:55:53.824Z,1.83
2018-09-14T00:58:22.032Z,2.10
2018-09-14T01:00:50.163Z,2.10
2018-09-14T01:03:18.320Z,2.03
2018-09-14T01:05:46.459Z,2.20
2018-09-14T01:08:14.592Z,2.10
2018-09-14T01:10:42.967Z,2.40
2018-09-14T01:13:11.134Z,2.00
2018-09-14T01:15:39.294Z,2.27
2018-09-14T01:18:07.413Z,2.10
2018-09-14T01:20:35.563Z,2.10
2018-09-14T01:23:03.689Z,2.23
2018-09-14T01:25:31.809Z,1.70
2018-09-14T01:27:59.955Z,1.90
2018-09-14T01:30:28.144Z,2.00
2018-09-14T01:32:56.305Z,1.97
2018-09-14T01:35:29.805Z,1.80
2018-09-14T01:37:57.946Z,2.37
2018-09-14T01:40:26.106Z,1.70
2018-09-14T01:42:54.248Z,2.10
2018-09-14T01:45:22.399Z,1.90
2018-09-14T01:47:50.577Z,1.80
2018-09-14T01:50:18.747Z,1.90
2018-09-14T01:52:46.972Z,2.20
2018-09-14T01:55:15.107Z,2.13
2018-09-14T01:57:43.229Z,1.80
2018-09-14T02:00:11.356Z,2.30
2018-09-14T02:02:39.490Z,1.93
2018-09-14T02:05:07.612Z,2.10
2018-09-14T02:07:35.721Z,2.00
2018-09-14T02:10:03.910Z,2.20
2018-09-14T02:12:32.038Z,2.17
2018-09-14T02:15:00.164Z,1.97
2018-09-14T02:17:28.313Z,2.03
2018-09-14T02:19:56.480Z,1.70
2018-09-14T02:22:24.628Z,2.10
2018-09-14T02:24:52.756Z,2.00
2018-09-14T02:27:20.876Z,1.90
2018-09-14T02:29:49.055Z,1.60
2018-09-14T02:32:17.181Z,1.80
2018-09-14T02:34:45.325Z,1.70
2018-09-14T02:37:13.464Z,1.93
2018-09-14T02:39:41.594Z,2.10
2018-09-14T02:42:09.728Z,1.87
2018-09-14T02:44:37.831Z,2.10
2018-09-14T02:47:06.168Z,1.90
2018-09-14T02:49:34.296Z,1.50
2018-09-14T02:52:02.408Z,2.00
2018-09-14T02:54:30.531Z,2.03
2018-09-14T02:56:58.672Z,1.80
2018-09-14T02:59:26.784Z,1.80
2018-09-14T03:01:54.909Z,2.10
2018-09-14T03:04:23.036Z,1.77
2018-09-14T03:06:51.191Z,1.50
2018-09-14T03:09:19.310Z,1.93
2018-09-14T03:11:47.479Z,1.90
2018-09-14T03:14:15.614Z,1.80
2018-09-14T03:16:43.749Z,1.57
2018-09-14T03:19:11.911Z,1.60
2018-09-14T03:21:40.084Z,1.90
2018-09-14T03:24:08.212Z,1.77
2018-09-14T03:26:36.343Z,1.50
2018-09-14T03:29:04.520Z,1.67
2018-09-14T03:31:32.626Z,1.60
2018-09-14T03:34:00.761Z,1.70
2018-09-14T03:36:28.874Z,1.60
2018-09-14T03:38:56.983Z,1.67
2018-09-14T03:41:25.117Z,1.83
2018-09-14T03:43:53.276Z,1.83
2018-09-14T03:46:21.436Z,1.80
2018-09-14T03:48:49.604Z,1.57
2018-09-14T03:51:17.832Z,1.63
2018-09-14T03:53:45.956Z,1.70
2018-09-14T03:56:14.122Z,1.50
2018-09-14T03:58:42.266Z,1.90
2018-09-14T04:01:10.383Z,1.70
2018-09-14T04:03:38.891Z,1.47
2018-09-14T04:06:07.060Z,1.90
2018-09-14T04:08:35.212Z,1.93
2018-09-14T04:11:03.333Z,1.60
2018-09-14T04:13:31.493Z,2.07
2018-09-14T04:15:59.695Z,1.87
2018-09-14T04:18:27.808Z,1.80
2018-09-14T04:20:55.944Z,1.63
2018-09-14T04:23:24.080Z,1.70
2018-09-14T04:25:52.188Z,1.50
2018-09-14T04:28:20.341Z,1.67
2018-09-14T04:30:48.462Z,2.20
2018-09-14T04:33:16.569Z,1.47
2018-09-14T04:35:44.701Z,1.93
2018-09-14T04:38:12.888Z,1.83
2018-09-14T04:40:41.011Z,1.70
2018-09-14T04:43:09.116Z,1.70
2018-09-14T04:45:37.232Z,1.77
2018-09-14T04:48:05.353Z,1.73
2018-09-14T04:50:33.749Z,1.80
2018-09-14T04:53:01.923Z,1.80
2018-09-14T04:55:30.128Z,1.70
2018-09-14T04:57:58.277Z,1.60
2018-09-14T05:00:26.424Z,1.83
2018-09-14T05:02:54.573Z,1.70
2018-09-14T05:05:22.715Z,1.87
2018-09-14T05:07:50.878Z,1.83
2018-09-14T05:10:19.026Z,1.57
2018-09-14T05:12:47.147Z,2.10
2018-09-14T05:15:15.298Z,1.60
2018-09-14T05:17:43.445Z,1.70
2018-09-14T05:20:11.576Z,1.73
2018-09-14T05:22:39.744Z,1.73
2018-09-14T05:25:07.936Z,1.93
2018-09-14T05:27:36.030Z,1.80
2018-09-14T05:30:04.175Z,2.00
2018-09-14T05:32:32.285Z,1.70
2018-09-14T05:35:00.421Z,1.77
2018-09-14T05:37:28.556Z,2.17
2018-09-14T05:39:56.685Z,1.83
2018-09-14T05:42:24.827Z,1.70
2018-09-14T05:44:52.954Z,1.60
2018-09-14T05:47:21.066Z,1.90
2018-09-14T05:49:49.156Z,1.77
2018-09-14T05:52:17.310Z,1.90
2018-09-14T05:54:45.439Z,1.93
2018-09-14T05:57:13.566Z,1.60
2018-09-14T05:59:41.760Z,1.80
2018-09-14T06:02:09.899Z,2.00
2018-09-14T06:04:38.160Z,1.73
2018-09-14T06:07:06.268Z,1.97
2018-09-14T06:09:34.410Z,1.80
2018-09-14T06:12:02.540Z,1.60
2018-09-14T06:14:30.701Z,1.80
2018-09-14T06:16:58.875Z,1.60
2018-09-14T06:19:26.968Z,2.00
2018-09-14T06:21:55.067Z,1.70
2018-09-14T06:24:23.194Z,1.80
2018-09-14T06:26:51.347Z,1.70
2018-09-14T06:29:19.503Z,1.90
2018-09-14T06:31:47.595Z,2.17
2018-09-14T06:34:15.703Z,2.10
2018-09-14T06:36:43.845Z,2.10
2018-09-14T06:39:12.715Z,1.50
2018-09-14T06:41:40.897Z,2.03
2018-09-14T06:44:09.442Z,1.73
2018-09-14T06:46:37.587Z,1.50
2018-09-14T06:49:06.342Z,1.73
2018-09-14T06:51:35.644Z,1.63
2018-09-14T06:54:03.832Z,1.50
2018-09-14T06:56:31.888Z,1.67
2018-09-14T06:59:00.031Z,1.90
2018-09-14T07:01:28.171Z,1.80
2018-09-14T07:03:56.345Z,1.80
2018-09-14T07:06:24.538Z,1.60
2018-09-14T07:08:52.575Z,1.60
2018-09-14T07:11:20.741Z,1.53
2018-09-14T07:13:49.249Z,1.80
2018-09-14T07:16:17.384Z,1.73
2018-09-14T07:18:45.586Z,1.70
2018-09-14T07:21:13.692Z,1.97
2018-09-14T07:23:41.787Z,1.63
2018-09-14T07:26:09.975Z,1.50
2018-09-14T07:28:38.116Z,1.93
2018-09-14T07:31:06.465Z,1.63
2018-09-14T07:33:34.609Z,1.60
2018-09-14T07:36:02.703Z,1.20
2018-09-14T07:38:30.844Z,1.80
2018-09-14T07:40:58.965Z,1.63
2018-09-14T07:43:27.108Z,1.53
2018-09-14T07:45:55.234Z,1.93
2018-09-14T07:48:23.448Z,1.70
2018-09-14T07:50:51.476Z,1.60
2018-09-14T07:53:19.603Z,1.37
2018-09-14T07:55:47.728Z,1.50
2018-09-14T07:58:15.844Z,1.30
2018-09-14T08:00:44.041Z,1.63
2018-09-14T08:03:12.168Z,1.40
2018-09-14T08:05:40.319Z,1.10
2018-09-14T08:08:08.496Z,1.20
2018-09-14T08:10:36.639Z,1.20
2018-09-14T08:13:04.775Z,1.40
2018-09-14T08:15:32.881Z,1.40
2018-09-14T08:18:01.008Z,1.50
2018-09-14T08:20:29.117Z,1.47
2018-09-14T08:22:57.269Z,1.00
2018-09-14T08:25:25.377Z,1.60
2018-09-14T08:27:53.614Z,1.33
2018-09-14T08:30:21.815Z,1.23
2018-09-14T08:32:49.961Z,1.00
2018-09-14T08:35:18.080Z,1.27
2018-09-14T08:37:46.233Z,1.33
2018-09-14T08:40:14.353Z,1.10
2018-09-14T08:42:42.781Z,1.10
2018-09-14T08:45:11.122Z,1.00
2018-09-14T08:47:39.231Z,1.23
2018-09-14T08:50:07.353Z,1.20
2018-09-14T08:52:35.476Z,1.00
2018-09-14T08:55:03.617Z,1.30
2018-09-14T08:57:31.727Z,1.00
2018-09-14T08:59:59.872Z,1.47
2018-09-14T09:02:27.997Z,1.20
2018-09-14T09:04:56.116Z,1.63
2018-09-14T09:07:24.257Z,1.10
2018-09-14T09:09:52.380Z,1.07
2018-09-14T09:12:20.529Z,1.60
2018-09-14T09:14:48.718Z,1.00
2018-09-14T09:17:16.820Z,1.00
2018-09-14T09:19:44.956Z,1.07
2018-09-14T09:22:13.061Z,1.07
2018-09-14T09:24:41.639Z,1.10
2018-09-14T09:27:09.743Z,1.07
2018-09-14T09:29:37.877Z,0.80
2018-09-14T09:32:06.087Z,1.30
2018-09-14T09:34:34.243Z,1.00
2018-09-14T09:37:02.372Z,1.10
2018-09-14T09:39:30.551Z,1.00
2018-09-14T09:41:58.688Z,1.23
2018-09-14T09:44:26.832Z,1.10
2018-09-14T09:46:54.925Z,1.10
2018-09-14T09:49:23.096Z,0.93
2018-09-14T09:51:51.211Z,1.20
2018-09-14T09:54:19.331Z,1.00
2018-09-14T09:56:47.633Z,1.27
2018-09-14T09:59:15.720Z,0.90
2018-09-14T10:01:49.289Z,1.00
2018-09-14T10:04:23.081Z,1.00
2018-09-14T10:06:51.227Z,1.00
2018-09-14T10:09:19.391Z,1.30
2018-09-14T10:11:47.512Z,1.13
2018-09-14T10:14:15.655Z,1.07
2018-09-14T10:16:43.779Z,1.23
2018-09-14T10:19:11.888Z,1.03
2018-09-14T10:21:40.049Z,1.23
2018-09-14T10:24:08.128Z,1.40
2018-09-14T10:26:36.256Z,1.20
2018-09-14T10:29:04.431Z,0.90
2018-09-14T10:31:32.512Z,1.00
2018-09-14T10:34:00.674Z,1.20
2018-09-14T10:36:28.810Z,1.00
2018-09-14T10:38:56.972Z,1.20
2018-09-14T10:41:25.099Z,1.00
2018-09-14T10:43:53.258Z,1.30
2018-09-14T10:46:21.343Z,1.23
2018-09-14T10:48:49.552Z,1.40
2018-09-14T10:51:17.618Z,1.10
2018-09-14T10:53:45.737Z,1.20
2018-09-14T10:56:13.916Z,1.00
2018-09-14T10:58:42.016Z,1.30
2018-09-14T11:01:10.943Z,0.90
2018-09-14T11:03:39.154Z,0.90
2018-09-14T11:06:07.309Z,1.17
2018-09-14T11:08:35.683Z,1.20
2018-09-14T11:11:03.852Z,1.00
2018-09-14T11:13:32.071Z,1.00
2018-09-14T11:16:00.336Z,1.00
2018-09-14T11:18:28.626Z,0.90
2018-09-14T11:20:56.741Z,1.00
2018-09-14T11:23:24.880Z,0.90
2018-09-14T11:25:53.061Z,0.90
2018-09-14T11:28:21.368Z,0.80
2018-09-14T11:30:49.604Z,1.13
2018-09-14T11:33:17.826Z,0.87
2018-09-14T11:35:45.963Z,0.80
2018-09-14T11:38:14.127Z,0.77
2018-09-14T11:40:42.244Z,0.80
2018-09-14T11:43:10.380Z,0.67
2018-09-14T11:45:38.554Z,0.70
2018-09-14T11:48:06.723Z,0.60
2018-09-14T11:50:34.861Z,0.80
2018-09-14T11:53:02.975Z,0.80
2018-09-14T11:55:31.132Z,0.70
2018-09-14T11:57:59.304Z,0.90
2018-09-14T12:00:27.451Z,0.70
2018-09-14T12:02:55.593Z,0.60
2018-09-14T12:05:23.724Z,0.70
2018-09-14T12:07:51.900Z,0.70
2018-09-14T12:10:20.040Z,0.55
2018-09-14T12:12:48.168Z,0.70
2018-09-14T12:15:16.292Z,0.60
2018-09-14T12:17:44.472Z,0.60
2018-09-14T12:20:12.679Z,0.73
2018-09-14T12:22:40.843Z,0.83
2018-09-14T12:25:08.971Z,0.80
2018-09-14T12:27:37.104Z,0.80
2018-09-14T12:30:05.326Z,0.83
2018-09-14T12:32:33.460Z,0.73
2018-09-14T12:35:01.574Z,0.93
2018-09-14T12:37:29.690Z,0.90
2018-09-14T12:39:57.829Z,0.70
2018-09-14T12:42:26.033Z,0.70
2018-09-14T12:44:54.183Z,1.03
2018-09-14T12:47:22.344Z,0.83
2018-09-14T12:49:50.468Z,0.80
2018-09-14T12:52:18.575Z,0.90
2018-09-14T12:54:46.695Z,0.80
2018-09-14T12:57:14.826Z,1.13
2018-09-14T12:59:42.950Z,1.10
2018-09-14T13:02:11.084Z,0.90
2018-09-14T13:04:40.282Z,1.00
2018-09-14T13:07:08.468Z,0.90
2018-09-14T13:09:37.053Z,1.33
2018-09-14T13:12:05.216Z,1.00
2018-09-14T13:14:33.391Z,0.80
2018-09-14T13:17:01.705Z,0.70
2018-09-14T13:19:30.444Z,0.70
2018-09-14T13:22:00.900Z,0.80
2018-09-14T13:24:29.009Z,0.83
2018-09-14T13:26:57.214Z,0.70
2018-09-14T13:29:25.319Z,0.90
2018-09-14T13:31:53.485Z,0.60
2018-09-14T13:34:21.616Z,0.70
2018-09-14T13:36:49.776Z,0.60
2018-09-14T13:39:17.917Z,0.80
2018-09-14T13:41:46.029Z,0.60
2018-09-14T13:44:14.136Z,0.70
2018-09-14T13:46:42.265Z,0.67
2018-09-14T13:49:10.421Z,0.70
2018-09-14T13:51:38.548Z,1.00
2018-09-14T13:54:06.692Z,0.80
2018-09-14T13:56:34.854Z,0.87
2018-09-14T13:59:03.004Z,0.83
2018-09-14T14:01:31.240Z,0.80
2018-09-14T14:03:59.253Z,0.90
2018-09-14T14:06:27.361Z,0.80
2018-09-14T14:08:55.472Z,1.10
2018-09-14T14:11:23.657Z,1.43
2018-09-14T14:13:51.855Z,1.10
2018-09-14T14:16:20.011Z,1.00
2018-09-14T14:18:48.147Z,1.13
2018-09-14T14:21:16.281Z,1.10
2018-09-14T14:23:44.420Z,0.90
2018-09-14T14:26:12.516Z,1.03
2018-09-14T14:28:40.648Z,1.27
2018-09-14T14:31:08.781Z,0.93
2018-09-14T14:33:36.912Z,1.00
2018-09-14T14:36:05.201Z,0.90
2018-09-14T14:38:33.325Z,1.10
2018-09-14T14:41:01.444Z,1.20
2018-09-14T14:43:29.591Z,1.33
2018-09-14T14:45:57.741Z,1.10
2018-09-14T14:48:25.876Z,1.20
2018-09-14T14:50:54.017Z,1.57
2018-09-14T14:53:22.164Z,1.10
2018-09-14T14:55:50.319Z,1.20
2018-09-14T14:58:18.383Z,1.10
2018-09-14T15:00:46.529Z,1.23
2018-09-14T15:03:14.695Z,1.20
2018-09-14T15:05:42.820Z,1.10
2018-09-14T15:08:10.948Z,1.10
2018-09-14T15:10:39.204Z,1.27
2018-09-14T15:13:07.241Z,1.40
2018-09-14T15:15:35.380Z,1.30
2018-09-14T15:18:03.539Z,1.50
2018-09-14T15:20:31.835Z,1.23
2018-09-14T15:23:00.000Z,1.10
2018-09-14T15:25:28.148Z,1.30
2018-09-14T15:27:56.342Z,1.43
2018-09-14T15:30:24.464Z,1.70
2018-09-14T15:32:52.616Z,1.30
2018-09-14T15:35:20.756Z,1.80
2018-09-14T15:37:49.762Z,1.20
2018-09-14T15:40:17.884Z,1.43
2018-09-14T15:42:46.037Z,1.30
2018-09-14T15:45:14.168Z,1.40
2018-09-14T15:47:42.300Z,1.33
2018-09-14T15:50:10.452Z,1.70
2018-09-14T15:52:39.055Z,1.40
2018-09-14T15:55:07.228Z,1.43
2018-09-14T15:57:35.380Z,1.40
2018-09-14T16:00:03.480Z,1.50
2018-09-14T16:02:31.999Z,1.13
2018-09-14T16:05:00.100Z,1.50
2018-09-14T16:07:28.365Z,1.77
2018-09-14T16:09:57.149Z,1.43
2018-09-14T16:12:25.277Z,1.77
2018-09-14T16:14:53.877Z,1.60
2018-09-14T16:17:24.321Z,1.60
2018-09-14T16:19:52.546Z,1.70
2018-09-14T16:22:22.924Z,1.53
2018-09-14T16:24:56.704Z,1.93
2018-09-14T16:27:25.156Z,1.40
2018-09-14T16:29:53.985Z,1.40
2018-09-14T16:32:22.100Z,1.40
2018-09-14T16:34:50.244Z,1.70
2018-09-14T16:37:18.427Z,1.50
2018-09-14T16:39:46.473Z,1.50
2018-09-14T16:42:14.604Z,1.60
2018-09-14T16:44:42.732Z,1.97
2018-09-14T16:47:11.161Z,1.70
2018-09-14T16:49:39.640Z,1.93
2018-09-14T16:52:07.745Z,2.10
2018-09-14T16:54:35.988Z,1.97
2018-09-14T16:57:04.148Z,2.67
2018-09-14T16:59:32.305Z,2.33
2018-09-14T17:02:00.424Z,2.30
2018-09-14T17:04:28.694Z,2.37
2018-09-14T17:06:56.862Z,2.20
2018-09-14T17:09:25.011Z,2.30
2018-09-14T17:11:53.275Z,2.13
2018-09-14T17:14:21.476Z,2.50
2018-09-14T17:16:49.630Z,2.57
2018-09-14T17:19:17.785Z,2.23
2018-09-14T17:21:45.905Z,2.83
2018-09-14T17:24:14.065Z,2.33
2018-09-14T17:26:42.205Z,2.30
2018-09-14T17:29:10.646Z,2.40
2018-09-14T17:31:38.792Z,2.00
2018-09-14T17:34:06.942Z,1.90
2018-09-14T17:36:35.040Z,2.30
2018-09-14T17:39:03.481Z,2.20
2018-09-14T17:41:34.784Z,2.17
2018-09-14T17:44:02.941Z,2.57
2018-09-14T17:46:31.187Z,2.00
2018-09-14T17:48:59.293Z,2.13
2018-09-14T17:51:27.384Z,2.60
2018-09-14T17:53:55.549Z,2.07
2018-09-14T17:56:23.689Z,2.10
2018-09-14T17:58:51.873Z,2.50
2018-09-14T18:01:20.035Z,2.00
2018-09-14T18:03:48.324Z,2.00
2018-09-14T18:06:16.449Z,2.20
2018-09-14T18:08:44.548Z,2.30
2018-09-14T18:11:12.975Z,2.47
2018-09-14T18:13:41.081Z,2.50
2018-09-14T18:16:09.387Z,2.57
2018-09-14T18:18:37.538Z,2.67
2018-09-14T18:21:05.740Z,2.30
2018-09-14T18:23:33.900Z,2.70
2018-09-14T18:26:02.200Z,2.30
2018-09-14T18:28:30.411Z,2.57
2018-09-14T18:30:58.555Z,2.60
2018-09-14T18:33:26.668Z,2.60
2018-09-14T18:35:55.648Z,2.33
2018-09-14T18:38:23.676Z,2.37
2018-09-14T18:40:51.787Z,2.70
2018-09-14T18:43:19.923Z,2.63
2018-09-14T18:45:48.028Z,2.13
2018-09-14T18:48:16.230Z,2.47
2018-09-14T18:50:44.339Z,2.80
2018-09-14T18:53:12.473Z,2.40
2018-09-14T18:55:40.614Z,2.60
2018-09-14T18:58:08.722Z,2.63
2018-09-14T19:00:36.847Z,2.40
2018-09-14T19:03:04.944Z,2.60
2018-09-14T19:05:33.131Z,2.80
2018-09-14T19:08:01.361Z,2.70
2018-09-14T19:10:29.547Z,2.60
2018-09-14T19:12:57.693Z,2.37
2018-09-14T19:15:25.816Z,2.93
2018-09-14T19:17:53.937Z,3.30
2018-09-14T19:20:22.065Z,3.27
2018-09-14T19:22:50.188Z,3.50
2018-09-14T19:25:18.296Z,3.20
2018-09-14T19:27:46.432Z,3.53
2018-09-14T19:30:14.556Z,3.33
2018-09-14T19:32:42.681Z,3.50
2018-09-14T19:35:10.849Z,4.00
2018-09-14T19:37:38.950Z,3.17
2018-09-14T19:40:07.065Z,3.40
2018-09-14T19:42:35.196Z,3.43
2018-09-14T19:45:03.311Z,2.93
2018-09-14T19:47:31.444Z,2.90
2018-09-14T19:49:59.625Z,3.47
2018-09-14T19:52:27.745Z,3.37
2018-09-14T19:54:55.860Z,3.27
2018-09-14T19:57:23.994Z,3.10
2018-09-14T19:59:52.147Z,3.33
2018-09-14T20:02:20.309Z,2.97
2018-09-14T20:04:48.503Z,3.57
2018-09-14T20:07:16.636Z,3.20
2018-09-14T20:09:44.730Z,2.80
2018-09-14T20:12:12.982Z,2.73
2018-09-14T20:14:41.183Z,2.73
2018-09-14T20:17:09.393Z,3.00
2018-09-14T20:19:37.508Z,2.70
2018-09-14T20:22:05.989Z,3.10
2018-09-14T20:24:34.116Z,2.50
2018-09-14T20:27:02.262Z,2.90
2018-09-14T20:29:30.456Z,3.00
2018-09-14T20:31:58.524Z,2.70
2018-09-14T20:34:26.676Z,2.80
2018-09-14T20:36:54.836Z,2.57
2018-09-14T20:39:22.976Z,2.37
2018-09-14T20:41:51.096Z,2.77
2018-09-14T20:44:19.274Z,2.73
2018-09-14T20:46:47.452Z,3.47
2018-09-14T20:49:15.585Z,2.70
2018-09-14T20:51:43.760Z,2.80
2018-09-14T20:54:11.815Z,2.30
2018-09-14T20:56:39.936Z,2.30
2018-09-14T20:59:08.215Z,2.53
2018-09-14T21:01:36.339Z,2.50
2018-09-14T21:04:04.450Z,2.57
2018-09-14T21:06:32.600Z,2.83
2018-09-14T21:09:00.892Z,2.50
2018-09-14T21:11:29.021Z,2.47
2018-09-14T21:13:57.149Z,2.50
2018-09-14T21:16:25.307Z,2.27
2018-09-14T21:18:53.465Z,2.67
2018-09-14T21:21:21.655Z,2.10
2018-09-14T21:23:49.862Z,2.57
2018-09-14T21:26:18.047Z,2.97
2018-09-14T21:28:46.387Z,2.27
2018-09-14T21:31:14.556Z,2.50
2018-09-14T21:33:43.515Z,2.53
2018-09-14T21:36:11.625Z,2.17
2018-09-14T21:38:39.824Z,2.40
2018-09-14T21:41:07.976Z,2.20
2018-09-14T21:43:36.137Z,2.77
2018-09-14T21:46:04.300Z,2.60
2018-09-14T21:48:32.420Z,2.33
2018-09-14T21:51:02.383Z,2.43
2018-09-14T21:53:31.049Z,2.40
2018-09-14T21:55:59.567Z,2.10
2018-09-14T21:58:27.709Z,2.70
2018-09-14T22:01:01.262Z,2.20
2018-09-14T22:03:29.604Z,1.93
2018-09-14T22:05:57.902Z,2.57
2018-09-14T22:08:26.166Z,2.70
2018-09-14T22:10:54.449Z,2.87
2018-09-14T22:13:22.660Z,2.80
2018-09-14T22:15:50.944Z,2.80
2018-09-14T22:18:19.099Z,2.90
2018-09-14T22:20:47.400Z,2.90
2018-09-14T22:23:15.716Z,2.93
2018-09-14T22:25:43.836Z,2.63
2018-09-14T22:28:12.508Z,2.60
2018-09-14T22:30:40.692Z,2.60
2018-09-14T22:33:08.828Z,2.70
2018-09-14T22:35:37.228Z,2.43
2018-09-14T22:38:05.360Z,2.53
2018-09-14T22:40:34.399Z,2.40
2018-09-14T22:43:02.616Z,2.73
2018-09-14T22:45:31.020Z,2.97
2018-09-14T22:47:59.260Z,2.83
2018-09-14T22:50:27.550Z,3.03
2018-09-14T22:52:55.791Z,2.43
2018-09-14T22:55:24.335Z,2.20
2018-09-14T22:57:52.673Z,2.77
2018-09-14T23:01:24.309Z,2.30
2018-09-14T23:03:52.516Z,2.50
2018-09-14T23:06:20.844Z,2.57
2018-09-14T23:08:49.053Z,2.43
2018-09-14T23:11:17.283Z,2.63
2018-09-14T23:13:45.677Z,2.47
2018-09-14T23:16:13.996Z,2.40
2018-09-14T23:18:42.140Z,2.57
2018-09-14T23:21:10.537Z,2.20
2018-09-14T23:23:38.677Z,3.03
2018-09-14T23:26:09.195Z,2.30
2018-09-14T23:28:37.588Z,2.30
2018-09-14T23:31:05.748Z,2.67
2018-09-14T23:33:33.873Z,2.50
2018-09-14T23:36:02.035Z,2.30
2018-09-14T23:38:30.175Z,2.37
2018-09-14T23:40:59.246Z,2.27
2018-09-14T23:43:27.476Z,2.03
2018-09-14T23:45:55.552Z,2.10
2018-09-14T23:48:23.688Z,2.23
2018-09-14T23:50:51.814Z,2.50
2018-09-14T23:53:19.949Z,2.53
2018-09-14T23:55:48.131Z,2.17
2018-09-14T23:58:16.227Z,2.43
